sensor_id;sensor_type;location;lat;lon;timestamp;P1;durP1;ratioP1;P2;durP2;ratioP2
4603;SDS011;2314;48.272;11.562;2022-09-27T00:00:38;116.53;;;2.97;;
4603;SDS011;2314;48.272;11.562;2022-09-27T00:03:06;117.07;;;2.97;;
4603;SDS011;2314;48.272;11.562;2022-09-27T00:05:34;117.40;;;3.50;;
4603;SDS011;2314;48.272;11.562;2022-09-27T00:08:01;116.47;;;2.97;;
4603;SDS011;2314;48.272;11.562;2022-09-27T00:10:28;122.53;;;3.23;;
4603;SDS011;2314;48.272;11.562;2022-09-27T00:12:56;117.00;;;3.17;;
4603;SDS011;2314;48.272;11.562;2022-09-27T00:15:24;117.03;;;3.40;;
4603;SDS011;2314;48.272;11.562;2022-09-27T00:17:53;116.50;;;3.20;;
4603;SDS011;2314;48.272;11.562;2022-09-27T00:20:20;116.27;;;3.10;;
4603;SDS011;2314;48.272;11.562;2022-09-27T00:22:47;117.67;;;3.40;;
4603;SDS011;2314;48.272;11.562;2022-09-27T00:25:15;116.47;;;3.17;;
4603;SDS011;2314;48.272;11.562;2022-09-27T00:27:42;116.03;;;3.30;;
4603;SDS011;2314;48.272;11.562;2022-09-27T00:30:10;116.07;;;3.00;;
4603;SDS011;2314;48.272;11.562;2022-09-27T00:32:39;117.30;;;3.50;;
4603;SDS011;2314;48.272;11.562;2022-09-27T00:35:07;117.10;;;3.20;;
4603;SDS011;2314;48.272;11.562;2022-09-27T00:37:34;118.00;;;3.60;;
4603;SDS011;2314;48.272;11.562;2022-09-27T00:40:02;119.73;;;4.00;;
4603;SDS011;2314;48.272;11.562;2022-09-27T00:42:30;120.07;;;4.03;;
4603;SDS011;2314;48.272;11.562;2022-09-27T00:45:05;117.50;;;3.37;;
4603;SDS011;2314;48.272;11.562;2022-09-27T00:47:39;122.80;;;3.20;;
4603;SDS011;2314;48.272;11.562;2022-09-27T00:50:20;117.83;;;3.60;;
4603;SDS011;2314;48.272;11.562;2022-09-27T00:52:54;124.07;;;3.57;;
4603;SDS011;2314;48.272;11.562;2022-09-27T00:55:34;119.50;;;3.30;;
4603;SDS011;2314;48.272;11.562;2022-09-27T00:58:04;118.83;;;3.43;;
4603;SDS011;2314;48.272;11.562;2022-09-27T01:00:32;117.47;;;3.33;;
4603;SDS011;2314;48.272;11.562;2022-09-27T01:03:02;122.27;;;3.53;;
4603;SDS011;2314;48.272;11.562;2022-09-27T01:05:34;122.00;;;3.87;;
4603;SDS011;2314;48.272;11.562;2022-09-27T01:08:02;117.87;;;3.43;;
4603;SDS011;2314;48.272;11.562;2022-09-27T01:10:30;118.73;;;3.30;;
4603;SDS011;2314;48.272;11.562;2022-09-27T01:13:11;117.90;;;4.03;;
4603;SDS011;2314;48.272;11.562;2022-09-27T01:15:47;117.53;;;3.60;;
4603;SDS011;2314;48.272;11.562;2022-09-27T01:18:27;119.07;;;3.80;;
4603;SDS011;2314;48.272;11.562;2022-09-27T01:21:08;119.67;;;3.67;;
4603;SDS011;2314;48.272;11.562;2022-09-27T01:23:58;118.50;;;3.63;;
4603;SDS011;2314;48.272;11.562;2022-09-27T01:27:24;117.90;;;3.67;;
4603;SDS011;2314;48.272;11.562;2022-09-27T01:30:31;118.50;;;3.53;;
4603;SDS011;2314;48.272;11.562;2022-09-27T01:33:21;119.13;;;3.90;;
4603;SDS011;2314;48.272;11.562;2022-09-27T01:36:04;119.03;;;4.10;;
4603;SDS011;2314;48.272;11.562;2022-09-27T01:38:44;118.07;;;3.07;;
4603;SDS011;2314;48.272;11.562;2022-09-27T01:41:31;124.07;;;4.37;;
4603;SDS011;2314;48.272;11.562;2022-09-27T01:44:05;119.70;;;4.17;;
4603;SDS011;2314;48.272;11.562;2022-09-27T01:46:39;119.80;;;3.53;;
4603;SDS011;2314;48.272;11.562;2022-09-27T01:49:11;120.33;;;3.70;;
4603;SDS011;2314;48.272;11.562;2022-09-27T01:51:43;121.47;;;4.17;;
4603;SDS011;2314;48.272;11.562;2022-09-27T01:54:15;120.77;;;4.07;;
4603;SDS011;2314;48.272;11.562;2022-09-27T01:56:53;123.37;;;3.93;;
4603;SDS011;2314;48.272;11.562;2022-09-27T01:59:24;121.23;;;3.57;;
4603;SDS011;2314;48.272;11.562;2022-09-27T02:01:58;119.60;;;3.87;;
4603;SDS011;2314;48.272;11.562;2022-09-27T02:04:32;119.37;;;4.00;;
4603;SDS011;2314;48.272;11.562;2022-09-27T02:07:04;119.50;;;4.10;;
4603;SDS011;2314;48.272;11.562;2022-09-27T02:09:39;119.37;;;3.90;;
4603;SDS011;2314;48.272;11.562;2022-09-27T02:12:12;124.53;;;4.27;;
4603;SDS011;2314;48.272;11.562;2022-09-27T02:14:45;118.77;;;3.30;;
4603;SDS011;2314;48.272;11.562;2022-09-27T02:17:22;119.10;;;3.20;;
4603;SDS011;2314;48.272;11.562;2022-09-27T02:19:58;118.63;;;3.30;;
4603;SDS011;2314;48.272;11.562;2022-09-27T02:22:34;119.07;;;3.27;;
4603;SDS011;2314;48.272;11.562;2022-09-27T02:25:04;119.00;;;3.00;;
4603;SDS011;2314;48.272;11.562;2022-09-27T02:27:43;120.90;;;3.63;;
4603;SDS011;2314;48.272;11.562;2022-09-27T02:30:20;118.77;;;3.20;;
4603;SDS011;2314;48.272;11.562;2022-09-27T02:32:49;118.57;;;3.60;;
4603;SDS011;2314;48.272;11.562;2022-09-27T02:35:18;122.23;;;3.77;;
4603;SDS011;2314;48.272;11.562;2022-09-27T02:37:50;120.27;;;3.43;;
4603;SDS011;2314;48.272;11.562;2022-09-27T02:40:18;119.13;;;3.43;;
4603;SDS011;2314;48.272;11.562;2022-09-27T02:42:46;123.03;;;3.90;;
4603;SDS011;2314;48.272;11.562;2022-09-27T02:45:13;120.87;;;3.60;;
4603;SDS011;2314;48.272;11.562;2022-09-27T02:47:48;120.60;;;3.57;;
4603;SDS011;2314;48.272;11.562;2022-09-27T02:50:40;122.50;;;4.70;;
4603;SDS011;2314;48.272;11.562;2022-09-27T02:53:28;121.70;;;4.10;;
4603;SDS011;2314;48.272;11.562;2022-09-27T02:56:07;126.70;;;4.20;;
4603;SDS011;2314;48.272;11.562;2022-09-27T02:58:45;121.80;;;4.70;;
4603;SDS011;2314;48.272;11.562;2022-09-27T03:01:25;120.83;;;4.27;;
4603;SDS011;2314;48.272;11.562;2022-09-27T03:04:01;120.87;;;4.30;;
4603;SDS011;2314;48.272;11.562;2022-09-27T03:06:35;122.67;;;4.40;;
4603;SDS011;2314;48.272;11.562;2022-09-27T03:09:03;121.30;;;4.47;;
4603;SDS011;2314;48.272;11.562;2022-09-27T03:11:30;122.87;;;4.50;;
4603;SDS011;2314;48.272;11.562;2022-09-27T03:13:58;121.70;;;4.27;;
4603;SDS011;2314;48.272;11.562;2022-09-27T03:16:25;122.13;;;4.83;;
4603;SDS011;2314;48.272;11.562;2022-09-27T03:18:52;122.77;;;5.10;;
4603;SDS011;2314;48.272;11.562;2022-09-27T03:21:21;126.47;;;4.80;;
4603;SDS011;2314;48.272;11.562;2022-09-27T03:23:48;122.20;;;4.83;;
4603;SDS011;2314;48.272;11.562;2022-09-27T03:26:15;122.67;;;4.80;;
4603;SDS011;2314;48.272;11.562;2022-09-27T03:28:42;125.60;;;5.53;;
4603;SDS011;2314;48.272;11.562;2022-09-27T03:31:09;122.37;;;4.57;;
4603;SDS011;2314;48.272;11.562;2022-09-27T03:33:36;120.40;;;4.40;;
4603;SDS011;2314;48.272;11.562;2022-09-27T03:36:03;121.07;;;4.30;;
4603;SDS011;2314;48.272;11.562;2022-09-27T03:38:33;124.60;;;4.93;;
4603;SDS011;2314;48.272;11.562;2022-09-27T03:41:00;125.97;;;5.57;;
4603;SDS011;2314;48.272;11.562;2022-09-27T03:43:27;125.10;;;4.93;;
4603;SDS011;2314;48.272;11.562;2022-09-27T03:45:54;122.60;;;5.20;;
4603;SDS011;2314;48.272;11.562;2022-09-27T03:48:21;121.17;;;4.80;;
4603;SDS011;2314;48.272;11.562;2022-09-27T03:50:49;123.33;;;5.07;;
4603;SDS011;2314;48.272;11.562;2022-09-27T03:53:17;122.73;;;4.90;;
4603;SDS011;2314;48.272;11.562;2022-09-27T03:55:46;121.70;;;5.00;;
4603;SDS011;2314;48.272;11.562;2022-09-27T03:58:13;126.20;;;5.07;;
4603;SDS011;2314;48.272;11.562;2022-09-27T04:00:40;121.83;;;4.70;;
4603;SDS011;2314;48.272;11.562;2022-09-27T04:03:08;120.07;;;3.97;;
4603;SDS011;2314;48.272;11.562;2022-09-27T04:05:36;120.97;;;4.13;;
4603;SDS011;2314;48.272;11.562;2022-09-27T04:08:03;121.63;;;4.10;;
4603;SDS011;2314;48.272;11.562;2022-09-27T04:10:31;119.50;;;4.10;;
4603;SDS011;2314;48.272;11.562;2022-09-27T04:13:00;120.20;;;3.90;;
4603;SDS011;2314;48.272;11.562;2022-09-27T04:15:27;123.80;;;4.50;;
4603;SDS011;2314;48.272;11.562;2022-09-27T04:17:54;120.77;;;4.07;;
4603;SDS011;2314;48.272;11.562;2022-09-27T04:20:21;121.33;;;4.10;;
4603;SDS011;2314;48.272;11.562;2022-09-27T04:22:48;121.37;;;4.03;;
4603;SDS011;2314;48.272;11.562;2022-09-27T04:25:16;127.57;;;4.17;;
4603;SDS011;2314;48.272;11.562;2022-09-27T04:27:43;119.40;;;3.43;;
4603;SDS011;2314;48.272;11.562;2022-09-27T04:30:12;118.70;;;2.90;;
4603;SDS011;2314;48.272;11.562;2022-09-27T04:32:40;119.97;;;3.53;;
4603;SDS011;2314;48.272;11.562;2022-09-27T04:35:08;119.67;;;3.30;;
4603;SDS011;2314;48.272;11.562;2022-09-27T04:37:53;119.00;;;2.90;;
4603;SDS011;2314;48.272;11.562;2022-09-27T04:40:21;119.47;;;3.07;;
4603;SDS011;2314;48.272;11.562;2022-09-27T04:42:48;118.77;;;2.70;;
4603;SDS011;2314;48.272;11.562;2022-09-27T04:45:17;119.30;;;3.13;;
4603;SDS011;2314;48.272;11.562;2022-09-27T04:47:45;118.90;;;2.97;;
4603;SDS011;2314;48.272;11.562;2022-09-27T04:50:14;117.67;;;2.73;;
4603;SDS011;2314;48.272;11.562;2022-09-27T04:52:43;120.30;;;3.20;;
4603;SDS011;2314;48.272;11.562;2022-09-27T04:55:15;118.87;;;2.70;;
4603;SDS011;2314;48.272;11.562;2022-09-27T04:57:42;119.57;;;3.27;;
4603;SDS011;2314;48.272;11.562;2022-09-27T05:00:10;119.10;;;3.13;;
4603;SDS011;2314;48.272;11.562;2022-09-27T05:02:40;119.20;;;3.00;;
4603;SDS011;2314;48.272;11.562;2022-09-27T05:05:08;119.00;;;3.20;;
4603;SDS011;2314;48.272;11.562;2022-09-27T05:07:36;118.80;;;2.80;;
4603;SDS011;2314;48.272;11.562;2022-09-27T05:10:04;119.37;;;3.10;;
4603;SDS011;2314;48.272;11.562;2022-09-27T05:12:33;118.87;;;3.27;;
4603;SDS011;2314;48.272;11.562;2022-09-27T05:15:00;119.03;;;3.10;;
4603;SDS011;2314;48.272;11.562;2022-09-27T05:17:28;117.57;;;2.77;;
4603;SDS011;2314;48.272;11.562;2022-09-27T05:19:56;119.60;;;3.03;;
4603;SDS011;2314;48.272;11.562;2022-09-27T05:22:23;121.10;;;2.80;;
4603;SDS011;2314;48.272;11.562;2022-09-27T05:24:50;119.00;;;2.80;;
4603;SDS011;2314;48.272;11.562;2022-09-27T05:27:18;121.97;;;2.83;;
4603;SDS011;2314;48.272;11.562;2022-09-27T05:29:45;118.90;;;3.10;;
4603;SDS011;2314;48.272;11.562;2022-09-27T05:32:13;118.57;;;2.60;;
4603;SDS011;2314;48.272;11.562;2022-09-27T05:34:40;118.40;;;2.83;;
4603;SDS011;2314;48.272;11.562;2022-09-27T05:37:09;119.40;;;2.70;;
4603;SDS011;2314;48.272;11.562;2022-09-27T05:39:37;119.73;;;2.83;;
4603;SDS011;2314;48.272;11.562;2022-09-27T05:42:04;117.97;;;2.37;;
4603;SDS011;2314;48.272;11.562;2022-09-27T05:44:34;118.90;;;2.80;;
4603;SDS011;2314;48.272;11.562;2022-09-27T05:47:02;120.87;;;3.00;;
4603;SDS011;2314;48.272;11.562;2022-09-27T05:49:29;121.70;;;2.87;;
4603;SDS011;2314;48.272;11.562;2022-09-27T05:51:58;118.60;;;2.60;;
4603;SDS011;2314;48.272;11.562;2022-09-27T05:54:27;119.83;;;2.83;;
4603;SDS011;2314;48.272;11.562;2022-09-27T05:56:54;119.20;;;2.80;;
4603;SDS011;2314;48.272;11.562;2022-09-27T05:59:23;119.40;;;3.00;;
4603;SDS011;2314;48.272;11.562;2022-09-27T06:01:51;118.47;;;2.70;;
4603;SDS011;2314;48.272;11.562;2022-09-27T06:04:19;119.20;;;2.83;;
4603;SDS011;2314;48.272;11.562;2022-09-27T06:06:47;119.60;;;2.83;;
4603;SDS011;2314;48.272;11.562;2022-09-27T06:09:14;120.20;;;2.70;;
4603;SDS011;2314;48.272;11.562;2022-09-27T06:11:52;120.47;;;3.00;;
4603;SDS011;2314;48.272;11.562;2022-09-27T06:14:19;118.43;;;2.90;;
4603;SDS011;2314;48.272;11.562;2022-09-27T06:16:46;118.07;;;2.60;;
4603;SDS011;2314;48.272;11.562;2022-09-27T06:19:13;119.80;;;2.53;;
4603;SDS011;2314;48.272;11.562;2022-09-27T06:21:42;118.37;;;2.50;;
4603;SDS011;2314;48.272;11.562;2022-09-27T06:24:09;120.30;;;2.80;;
4603;SDS011;2314;48.272;11.562;2022-09-27T06:26:36;118.07;;;2.50;;
4603;SDS011;2314;48.272;11.562;2022-09-27T06:29:05;117.30;;;2.47;;
4603;SDS011;2314;48.272;11.562;2022-09-27T06:31:32;117.87;;;2.50;;
4603;SDS011;2314;48.272;11.562;2022-09-27T06:33:59;118.50;;;2.80;;
4603;SDS011;2314;48.272;11.562;2022-09-27T06:36:26;119.17;;;3.07;;
4603;SDS011;2314;48.272;11.562;2022-09-27T06:38:54;119.57;;;3.00;;
4603;SDS011;2314;48.272;11.562;2022-09-27T06:41:21;119.60;;;2.90;;
4603;SDS011;2314;48.272;11.562;2022-09-27T06:43:48;123.77;;;2.60;;
4603;SDS011;2314;48.272;11.562;2022-09-27T06:46:17;120.23;;;3.00;;
4603;SDS011;2314;48.272;11.562;2022-09-27T06:48:44;118.80;;;2.70;;
4603;SDS011;2314;48.272;11.562;2022-09-27T06:51:12;120.10;;;3.00;;
4603;SDS011;2314;48.272;11.562;2022-09-27T06:53:39;117.93;;;2.50;;
4603;SDS011;2314;48.272;11.562;2022-09-27T06:56:06;118.50;;;2.70;;
4603;SDS011;2314;48.272;11.562;2022-09-27T06:58:34;119.37;;;2.70;;
4603;SDS011;2314;48.272;11.562;2022-09-27T07:01:27;119.17;;;2.70;;
4603;SDS011;2314;48.272;11.562;2022-09-27T07:03:55;120.10;;;2.80;;
4603;SDS011;2314;48.272;11.562;2022-09-27T07:06:22;118.40;;;2.63;;
4603;SDS011;2314;48.272;11.562;2022-09-27T07:08:51;117.10;;;2.30;;
4603;SDS011;2314;48.272;11.562;2022-09-27T07:11:20;116.63;;;2.50;;
4603;SDS011;2314;48.272;11.562;2022-09-27T07:13:47;121.17;;;2.80;;
4603;SDS011;2314;48.272;11.562;2022-09-27T07:16:16;118.43;;;2.40;;
4603;SDS011;2314;48.272;11.562;2022-09-27T07:18:45;123.07;;;2.93;;
4603;SDS011;2314;48.272;11.562;2022-09-27T07:21:14;123.27;;;2.93;;
4603;SDS011;2314;48.272;11.562;2022-09-27T07:23:41;117.73;;;2.40;;
4603;SDS011;2314;48.272;11.562;2022-09-27T07:26:08;122.20;;;2.73;;
4603;SDS011;2314;48.272;11.562;2022-09-27T07:28:36;120.50;;;2.70;;
4603;SDS011;2314;48.272;11.562;2022-09-27T07:31:05;119.50;;;2.67;;
4603;SDS011;2314;48.272;11.562;2022-09-27T07:33:34;117.80;;;2.50;;
4603;SDS011;2314;48.272;11.562;2022-09-27T07:36:06;119.57;;;2.60;;
4603;SDS011;2314;48.272;11.562;2022-09-27T07:38:35;118.33;;;2.87;;
4603;SDS011;2314;48.272;11.562;2022-09-27T07:41:06;119.27;;;2.40;;
4603;SDS011;2314;48.272;11.562;2022-09-27T07:43:34;118.10;;;2.60;;
4603;SDS011;2314;48.272;11.562;2022-09-27T07:46:01;117.53;;;2.60;;
4603;SDS011;2314;48.272;11.562;2022-09-27T07:48:29;117.40;;;2.50;;
4603;SDS011;2314;48.272;11.562;2022-09-27T07:50:56;117.87;;;2.80;;
4603;SDS011;2314;48.272;11.562;2022-09-27T07:53:25;119.57;;;3.20;;
4603;SDS011;2314;48.272;11.562;2022-09-27T07:55:52;116.80;;;2.60;;
4603;SDS011;2314;48.272;11.562;2022-09-27T07:58:19;120.90;;;3.13;;
4603;SDS011;2314;48.272;11.562;2022-09-27T08:00:47;121.67;;;2.63;;
4603;SDS011;2314;48.272;11.562;2022-09-27T08:03:14;117.83;;;2.70;;
4603;SDS011;2314;48.272;11.562;2022-09-27T08:05:43;119.07;;;2.40;;
4603;SDS011;2314;48.272;11.562;2022-09-27T08:08:12;118.07;;;2.40;;
4603;SDS011;2314;48.272;11.562;2022-09-27T08:10:41;119.70;;;2.53;;
4603;SDS011;2314;48.272;11.562;2022-09-27T08:13:10;118.90;;;2.50;;
4603;SDS011;2314;48.272;11.562;2022-09-27T08:15:38;118.20;;;2.40;;
4603;SDS011;2314;48.272;11.562;2022-09-27T08:18:06;120.47;;;2.80;;
4603;SDS011;2314;48.272;11.562;2022-09-27T08:20:34;121.10;;;2.40;;
4603;SDS011;2314;48.272;11.562;2022-09-27T08:23:01;117.70;;;2.40;;
4603;SDS011;2314;48.272;11.562;2022-09-27T08:25:29;118.30;;;2.40;;
4603;SDS011;2314;48.272;11.562;2022-09-27T08:27:58;119.57;;;2.50;;
4603;SDS011;2314;48.272;11.562;2022-09-27T08:30:28;118.20;;;2.23;;
4603;SDS011;2314;48.272;11.562;2022-09-27T08:32:56;118.00;;;2.30;;
4603;SDS011;2314;48.272;11.562;2022-09-27T08:35:27;117.93;;;2.40;;
4603;SDS011;2314;48.272;11.562;2022-09-27T08:37:55;118.57;;;2.50;;
4603;SDS011;2314;48.272;11.562;2022-09-27T08:40:24;118.77;;;2.27;;
4603;SDS011;2314;48.272;11.562;2022-09-27T08:43:05;117.00;;;2.20;;
4603;SDS011;2314;48.272;11.562;2022-09-27T08:45:45;117.77;;;2.30;;
4603;SDS011;2314;48.272;11.562;2022-09-27T08:48:24;118.17;;;2.10;;
4603;SDS011;2314;48.272;11.562;2022-09-27T08:50:58;118.27;;;2.50;;
4603;SDS011;2314;48.272;11.562;2022-09-27T08:53:29;117.30;;;2.50;;
4603;SDS011;2314;48.272;11.562;2022-09-27T08:56:02;117.30;;;2.30;;
4603;SDS011;2314;48.272;11.562;2022-09-27T08:58:35;117.97;;;2.17;;
4603;SDS011;2314;48.272;11.562;2022-09-27T09:01:10;116.97;;;2.40;;
4603;SDS011;2314;48.272;11.562;2022-09-27T09:03:42;116.97;;;2.47;;
4603;SDS011;2314;48.272;11.562;2022-09-27T09:06:15;116.97;;;2.47;;
4603;SDS011;2314;48.272;11.562;2022-09-27T09:08:56;116.07;;;2.30;;
4603;SDS011;2314;48.272;11.562;2022-09-27T09:11:33;117.37;;;2.27;;
4603;SDS011;2314;48.272;11.562;2022-09-27T09:14:40;116.90;;;2.10;;
4603;SDS011;2314;48.272;11.562;2022-09-27T09:17:29;115.27;;;2.20;;
4603;SDS011;2314;48.272;11.562;2022-09-27T09:20:20;116.70;;;2.13;;
4603;SDS011;2314;48.272;11.562;2022-09-27T09:25:59;116.47;;;2.20;;
4603;SDS011;2314;48.272;11.562;2022-09-27T09:28:37;116.17;;;2.13;;
4603;SDS011;2314;48.272;11.562;2022-09-27T09:31:23;117.70;;;2.17;;
4603;SDS011;2314;48.272;11.562;2022-09-27T09:34:03;115.17;;;2.07;;
4603;SDS011;2314;48.272;11.562;2022-09-27T09:36:40;115.30;;;2.00;;
4603;SDS011;2314;48.272;11.562;2022-09-27T09:39:13;115.20;;;2.00;;
4603;SDS011;2314;48.272;11.562;2022-09-27T09:41:47;114.37;;;2.00;;
4603;SDS011;2314;48.272;11.562;2022-09-27T09:44:33;117.00;;;2.10;;
4603;SDS011;2314;48.272;11.562;2022-09-27T09:47:13;120.63;;;2.30;;
4603;SDS011;2314;48.272;11.562;2022-09-27T09:49:50;118.23;;;2.20;;
4603;SDS011;2314;48.272;11.562;2022-09-27T09:52:23;117.87;;;2.37;;
4603;SDS011;2314;48.272;11.562;2022-09-27T09:55:00;116.17;;;2.20;;
4603;SDS011;2314;48.272;11.562;2022-09-27T09:57:34;115.50;;;2.10;;
4603;SDS011;2314;48.272;11.562;2022-09-27T10:00:12;114.87;;;2.10;;
4603;SDS011;2314;48.272;11.562;2022-09-27T10:02:43;115.00;;;2.10;;
4603;SDS011;2314;48.272;11.562;2022-09-27T10:05:12;116.13;;;1.93;;
4603;SDS011;2314;48.272;11.562;2022-09-27T10:07:42;114.80;;;2.00;;
4603;SDS011;2314;48.272;11.562;2022-09-27T10:10:11;116.03;;;2.20;;
4603;SDS011;2314;48.272;11.562;2022-09-27T10:12:41;115.07;;;2.10;;
4603;SDS011;2314;48.272;11.562;2022-09-27T10:15:11;115.70;;;2.40;;
4603;SDS011;2314;48.272;11.562;2022-09-27T10:17:45;115.27;;;2.10;;
4603;SDS011;2314;48.272;11.562;2022-09-27T10:20:24;114.17;;;1.93;;
4603;SDS011;2314;48.272;11.562;2022-09-27T10:22:58;115.97;;;2.00;;
4603;SDS011;2314;48.272;11.562;2022-09-27T10:25:47;115.23;;;2.00;;
4603;SDS011;2314;48.272;11.562;2022-09-27T10:31:09;114.20;;;2.13;;
4603;SDS011;2314;48.272;11.562;2022-09-27T10:33:50;114.07;;;1.80;;
4603;SDS011;2314;48.272;11.562;2022-09-27T10:36:21;115.03;;;1.80;;
4603;SDS011;2314;48.272;11.562;2022-09-27T10:38:51;112.50;;;1.80;;
4603;SDS011;2314;48.272;11.562;2022-09-27T10:41:22;113.97;;;1.90;;
4603;SDS011;2314;48.272;11.562;2022-09-27T10:43:52;113.07;;;1.80;;
4603;SDS011;2314;48.272;11.562;2022-09-27T10:46:23;113.40;;;1.80;;
4603;SDS011;2314;48.272;11.562;2022-09-27T10:49:09;113.20;;;1.80;;
4603;SDS011;2314;48.272;11.562;2022-09-27T10:51:45;113.40;;;1.90;;
4603;SDS011;2314;48.272;11.562;2022-09-27T10:54:17;112.13;;;1.60;;
4603;SDS011;2314;48.272;11.562;2022-09-27T10:56:53;114.57;;;2.10;;
4603;SDS011;2314;48.272;11.562;2022-09-27T10:59:22;112.80;;;2.17;;
4603;SDS011;2314;48.272;11.562;2022-09-27T11:01:51;114.93;;;2.07;;
4603;SDS011;2314;48.272;11.562;2022-09-27T11:04:22;112.10;;;1.80;;
4603;SDS011;2314;48.272;11.562;2022-09-27T11:07:00;112.53;;;2.00;;
4603;SDS011;2314;48.272;11.562;2022-09-27T11:09:43;112.67;;;1.70;;
4603;SDS011;2314;48.272;11.562;2022-09-27T11:12:14;113.17;;;1.93;;
4603;SDS011;2314;48.272;11.562;2022-09-27T11:14:45;113.53;;;1.90;;
4603;SDS011;2314;48.272;11.562;2022-09-27T11:17:23;114.07;;;1.87;;
4603;SDS011;2314;48.272;11.562;2022-09-27T11:20:14;116.57;;;2.07;;
4603;SDS011;2314;48.272;11.562;2022-09-27T11:26:01;118.10;;;2.10;;
4603;SDS011;2314;48.272;11.562;2022-09-27T11:29:10;114.20;;;2.10;;
4603;SDS011;2314;48.272;11.562;2022-09-27T11:31:53;114.37;;;2.00;;
4603;SDS011;2314;48.272;11.562;2022-09-27T11:34:40;115.57;;;2.07;;
4603;SDS011;2314;48.272;11.562;2022-09-27T11:37:24;113.30;;;1.80;;
4603;SDS011;2314;48.272;11.562;2022-09-27T11:40:02;113.67;;;1.70;;
4603;SDS011;2314;48.272;11.562;2022-09-27T11:43:00;111.80;;;1.70;;
4603;SDS011;2314;48.272;11.562;2022-09-27T11:45:41;111.37;;;1.73;;
4603;SDS011;2314;48.272;11.562;2022-09-27T11:48:22;112.20;;;1.83;;
4603;SDS011;2314;48.272;11.562;2022-09-27T11:51:12;113.63;;;1.93;;
4603;SDS011;2314;48.272;11.562;2022-09-27T11:53:58;111.90;;;1.80;;
4603;SDS011;2314;48.272;11.562;2022-09-27T11:56:40;115.10;;;2.00;;
4603;SDS011;2314;48.272;11.562;2022-09-27T11:59:26;115.30;;;2.10;;
4603;SDS011;2314;48.272;11.562;2022-09-27T12:02:17;116.60;;;2.30;;
4603;SDS011;2314;48.272;11.562;2022-09-27T12:05:02;116.87;;;2.63;;
4603;SDS011;2314;48.272;11.562;2022-09-27T12:07:44;119.87;;;2.50;;
4603;SDS011;2314;48.272;11.562;2022-09-27T12:10:26;118.40;;;2.87;;
4603;SDS011;2314;48.272;11.562;2022-09-27T12:12:54;117.30;;;2.60;;
4603;SDS011;2314;48.272;11.562;2022-09-27T12:15:24;117.93;;;2.47;;
4603;SDS011;2314;48.272;11.562;2022-09-27T12:17:58;117.60;;;2.40;;
4603;SDS011;2314;48.272;11.562;2022-09-27T12:20:35;120.97;;;2.87;;
4603;SDS011;2314;48.272;11.562;2022-09-27T12:23:07;117.87;;;2.63;;
4603;SDS011;2314;48.272;11.562;2022-09-27T12:25:43;117.67;;;2.40;;
4603;SDS011;2314;48.272;11.562;2022-09-27T12:28:17;117.60;;;2.50;;
4603;SDS011;2314;48.272;11.562;2022-09-27T12:30:52;116.80;;;2.20;;
4603;SDS011;2314;48.272;11.562;2022-09-27T12:33:28;117.33;;;2.37;;
4603;SDS011;2314;48.272;11.562;2022-09-27T12:36:03;116.50;;;2.37;;
4603;SDS011;2314;48.272;11.562;2022-09-27T12:38:36;115.97;;;2.30;;
4603;SDS011;2314;48.272;11.562;2022-09-27T12:41:11;115.57;;;2.30;;
4603;SDS011;2314;48.272;11.562;2022-09-27T12:43:44;116.00;;;2.10;;
4603;SDS011;2314;48.272;11.562;2022-09-27T12:46:14;115.57;;;2.30;;
4603;SDS011;2314;48.272;11.562;2022-09-27T12:48:51;115.53;;;2.20;;
4603;SDS011;2314;48.272;11.562;2022-09-27T12:51:25;115.20;;;2.57;;
4603;SDS011;2314;48.272;11.562;2022-09-27T12:54:04;115.67;;;2.20;;
4603;SDS011;2314;48.272;11.562;2022-09-27T12:57:00;114.83;;;2.20;;
4603;SDS011;2314;48.272;11.562;2022-09-27T12:59:53;114.40;;;2.40;;
4603;SDS011;2314;48.272;11.562;2022-09-27T13:05:54;116.30;;;2.40;;
4603;SDS011;2314;48.272;11.562;2022-09-27T13:08:54;116.80;;;2.50;;
4603;SDS011;2314;48.272;11.562;2022-09-27T13:12:07;115.80;;;2.40;;
4603;SDS011;2314;48.272;11.562;2022-09-27T13:14:39;114.87;;;2.63;;
4603;SDS011;2314;48.272;11.562;2022-09-27T13:26:44;114.00;;;2.10;;
4603;SDS011;2314;48.272;11.562;2022-09-27T13:29:22;114.07;;;2.30;;
4603;SDS011;2314;48.272;11.562;2022-09-27T13:32:17;115.37;;;2.50;;
4603;SDS011;2314;48.272;11.562;2022-09-27T13:34:46;115.70;;;2.60;;
4603;SDS011;2314;48.272;11.562;2022-09-27T13:37:37;114.17;;;2.10;;
4603;SDS011;2314;48.272;11.562;2022-09-27T13:40:31;114.10;;;2.17;;
4603;SDS011;2314;48.272;11.562;2022-09-27T13:46:15;112.70;;;1.90;;
4603;SDS011;2314;48.272;11.562;2022-09-27T13:48:46;117.43;;;2.50;;
4603;SDS011;2314;48.272;11.562;2022-09-27T13:51:19;113.97;;;1.90;;
4603;SDS011;2314;48.272;11.562;2022-09-27T13:54:01;112.63;;;1.80;;
4603;SDS011;2314;48.272;11.562;2022-09-27T13:56:50;113.17;;;1.97;;
4603;SDS011;2314;48.272;11.562;2022-09-27T13:59:22;114.10;;;1.90;;
4603;SDS011;2314;48.272;11.562;2022-09-27T14:01:59;111.47;;;1.50;;
4603;SDS011;2314;48.272;11.562;2022-09-27T14:04:45;125.80;;;1.90;;
4603;SDS011;2314;48.272;11.562;2022-09-27T14:07:16;111.80;;;1.80;;
4603;SDS011;2314;48.272;11.562;2022-09-27T14:09:48;112.67;;;1.80;;
4603;SDS011;2314;48.272;11.562;2022-09-27T14:12:20;112.57;;;1.87;;
4603;SDS011;2314;48.272;11.562;2022-09-27T14:15:00;113.07;;;1.97;;
4603;SDS011;2314;48.272;11.562;2022-09-27T14:17:31;112.70;;;1.70;;
4603;SDS011;2314;48.272;11.562;2022-09-27T14:19:58;112.30;;;1.70;;
4603;SDS011;2314;48.272;11.562;2022-09-27T14:22:27;113.37;;;2.10;;
4603;SDS011;2314;48.272;11.562;2022-09-27T14:24:54;113.23;;;1.80;;
4603;SDS011;2314;48.272;11.562;2022-09-27T14:27:23;116.17;;;1.80;;
4603;SDS011;2314;48.272;11.562;2022-09-27T14:29:52;113.90;;;1.73;;
4603;SDS011;2314;48.272;11.562;2022-09-27T14:32:22;113.40;;;2.00;;
4603;SDS011;2314;48.272;11.562;2022-09-27T14:35:09;114.67;;;2.30;;
4603;SDS011;2314;48.272;11.562;2022-09-27T14:37:57;114.30;;;1.87;;
4603;SDS011;2314;48.272;11.562;2022-09-27T14:40:26;115.07;;;1.90;;
4603;SDS011;2314;48.272;11.562;2022-09-27T14:42:54;113.10;;;1.83;;
4603;SDS011;2314;48.272;11.562;2022-09-27T14:45:25;113.37;;;1.83;;
4603;SDS011;2314;48.272;11.562;2022-09-27T14:48:01;118.30;;;2.20;;
4603;SDS011;2314;48.272;11.562;2022-09-27T14:50:53;114.17;;;1.90;;
4603;SDS011;2314;48.272;11.562;2022-09-27T14:53:25;112.67;;;1.73;;
4603;SDS011;2314;48.272;11.562;2022-09-27T14:55:55;113.03;;;2.00;;
4603;SDS011;2314;48.272;11.562;2022-09-27T14:58:22;114.27;;;1.80;;
4603;SDS011;2314;48.272;11.562;2022-09-27T15:00:50;114.53;;;2.00;;
4603;SDS011;2314;48.272;11.562;2022-09-27T15:03:19;114.20;;;2.07;;
4603;SDS011;2314;48.272;11.562;2022-09-27T15:05:57;113.77;;;2.10;;
4603;SDS011;2314;48.272;11.562;2022-09-27T15:08:25;117.97;;;2.00;;
4603;SDS011;2314;48.272;11.562;2022-09-27T15:10:57;113.30;;;2.00;;
4603;SDS011;2314;48.272;11.562;2022-09-27T15:13:25;115.13;;;2.13;;
4603;SDS011;2314;48.272;11.562;2022-09-27T15:15:53;113.77;;;1.93;;
4603;SDS011;2314;48.272;11.562;2022-09-27T15:18:30;113.80;;;2.10;;
4603;SDS011;2314;48.272;11.562;2022-09-27T15:21:07;114.80;;;2.30;;
4603;SDS011;2314;48.272;11.562;2022-09-27T15:23:36;115.13;;;2.10;;
4603;SDS011;2314;48.272;11.562;2022-09-27T15:26:07;128.13;;;2.63;;
4603;SDS011;2314;48.272;11.562;2022-09-27T15:28:40;116.57;;;2.33;;
4603;SDS011;2314;48.272;11.562;2022-09-27T15:31:09;115.87;;;2.63;;
4603;SDS011;2314;48.272;11.562;2022-09-27T15:33:37;121.00;;;2.70;;